Time;durP1;ratioP1;P1;durP2;ratioP2;P2;SDS_P1;SDS_P2;PMS_P1;PMS_P2;Temp;Humidity;BMP_temperature;BMP_pressure;BME280_temperature;BME280_humidity;BME280_pressure;Samples;Min_cycle;Max_cycle;Signal;HPM_P1;HPM_P2
2023/02/08 00:02:16;;;;;;;;;22.00;19.75;;;;;4.38;100.00;103372.63;5049602;28;45812;-70
2023/02/08 00:04:42;;;;;;;;;26.50;20.75;;;;;4.32;100.00;103372.16;5052388;28;45502;-70
2023/02/08 00:07:07;;;;;;;;;26.75;17.25;;;;;4.33;100.00;103368.75;5052143;28;52747;-73
2023/02/08 00:09:32;;;;;;;;;14.00;11.50;;;;;4.28;100.00;103364.84;5047300;28;47396;-70
2023/02/08 00:11:58;;;;;;;;;23.75;18.75;;;;;4.30;100.00;103372.81;5034712;28;45410;-72
2023/02/08 00:14:23;;;;;;;;;25.00;23.75;;;;;4.22;100.00;103364.38;5053480;28;45340;-73
2023/02/08 00:16:48;;;;;;;;;23.50;20.75;;;;;4.15;100.00;103356.84;5052941;28;45591;-71
2023/02/08 00:19:14;;;;;;;;;24.00;17.00;;;;;4.19;100.00;103369.38;5045120;28;58811;-70
2023/02/08 00:21:39;;;;;;;;;21.50;21.25;;;;;4.20;100.00;103372.09;5053355;28;45432;-73
2023/02/08 00:24:05;;;;;;;;;20.50;18.00;;;;;4.03;100.00;103351.56;5053210;28;45351;-71
2023/02/08 00:26:30;;;;;;;;;27.50;18.00;;;;;4.15;100.00;103362.97;5052389;28;45459;-72
2023/02/08 00:28:56;;;;;;;;;27.75;18.00;;;;;4.13;100.00;103351.50;5052678;28;45436;-70
2023/02/08 00:31:21;;;;;;;;;20.50;18.00;;;;;4.11;100.00;103358.34;5050331;27;47143;-71
2023/02/08 00:33:46;;;;;;;;;24.50;19.25;;;;;4.07;100.00;103358.88;5052673;28;53733;-70
2023/02/08 00:36:12;;;;;;;;;27.25;23.50;;;;;4.01;100.00;103353.19;5052088;28;45743;-70
2023/02/08 00:38:37;;;;;;;;;21.00;17.50;;;;;4.01;100.00;103355.78;5052336;28;45413;-71
2023/02/08 00:41:03;;;;;;;;;29.50;17.75;;;;;3.98;100.00;103349.41;5051043;28;45449;-71
2023/02/08 00:43:28;;;;;;;;;20.50;15.75;;;;;3.97;100.00;103358.03;5052363;28;45666;-71
2023/02/08 00:45:55;;;;;;;;;21.00;18.00;;;;;3.87;100.00;103343.34;5216415;22;46123;-70
2023/02/08 00:48:21;;;;;;;;;34.75;17.00;;;;;3.82;100.00;103334.22;5077724;27;45520;-70
2023/02/08 00:51:06;;;;;;;;;25.00;21.25;;;;;3.88;100.00;103353.00;5095703;27;54066;-72
2023/02/08 00:53:37;;;;;;;;;24.00;21.50;;;;;3.86;100.00;103352.88;5092757;27;45426;-71
2023/02/08 00:56:03;;;;;;;;;31.75;21.50;;;;;3.87;100.00;103359.00;5094713;27;45296;-72
2023/02/08 00:58:29;;;;;;;;;36.75;24.25;;;;;3.87;100.00;103353.78;5092238;27;45568;-70
2023/02/08 01:00:54;;;;;;;;;36.25;27.75;;;;;3.88;100.00;103360.84;5094683;27;46379;-70
2023/02/08 01:03:20;;;;;;;;;41.25;30.25;;;;;3.84;100.00;103359.69;5096813;27;45475;-69
2023/02/08 01:05:46;;;;;;;;;41.50;34.75;;;;;3.78;100.00;103346.16;5090882;27;47028;-69
2023/02/08 01:08:11;;;;;;;;;44.75;33.25;;;;;3.88;100.00;103355.59;5095739;27;45466;-70
2023/02/08 01:10:36;;;;;;;;;40.25;34.75;;;;;3.86;100.00;103358.09;5095337;27;57475;-72
2023/02/08 01:13:02;;;;;;;;;44.50;35.25;;;;;3.88;100.00;103364.34;5095328;27;49235;-70
2023/02/08 01:15:27;;;;;;;;;45.25;39.75;;;;;3.88;100.00;103359.13;5096240;27;45649;-69
2023/02/08 01:17:56;;;;;;;;;55.50;43.00;;;;;3.84;100.00;103348.34;5092799;27;56095;-70
2023/02/08 01:20:22;;;;;;;;;67.00;41.50;;;;;3.83;100.00;103351.72;5096144;27;45489;-70
2023/02/08 01:22:47;;;;;;;;;56.00;41.00;;;;;3.87;100.00;103359.91;5095329;27;45559;-71
2023/02/08 01:25:13;;;;;;;;;57.75;43.75;;;;;3.83;100.00;103351.72;5095713;27;46301;-70
2023/02/08 01:27:38;;;;;;;;;60.00;42.25;;;;;3.88;100.00;103363.44;5095304;27;45501;-69
2023/02/08 01:30:04;;;;;;;;;49.25;41.50;;;;;3.87;100.00;103365.16;5095963;27;48351;-71
2023/02/08 01:32:29;;;;;;;;;47.50;41.25;;;;;3.73;100.00;103357.94;5095602;27;45321;-70
2023/02/08 01:34:55;;;;;;;;;55.25;44.25;;;;;3.83;100.00;103368.31;5094141;27;55603;-70
2023/02/08 01:37:20;;;;;;;;;52.00;42.25;;;;;3.82;100.00;103376.03;5076508;27;54450;-71
2023/02/08 01:39:46;;;;;;;;;50.75;42.75;;;;;3.77;100.00;103359.06;5093060;27;45388;-69
2023/02/08 01:42:15;;;;;;;;;62.00;45.75;;;;;3.82;100.00;103365.56;5092719;27;53398;-70
2023/02/08 01:44:59;;;;;;;;;58.00;42.25;;;;;3.81;100.00;103366.38;5091939;27;47352;-70
2023/02/08 01:47:25;;;;;;;;;53.00;37.25;;;;;3.77;100.00;103367.81;5095220;27;45408;-72
2023/02/08 01:49:51;;;;;;;;;47.75;39.75;;;;;3.75;100.00;103372.03;5095604;27;45865;-70
2023/02/08 01:52:18;;;;;;;;;40.50;35.25;;;;;3.65;100.00;103352.09;5090852;27;48119;-72
2023/02/08 01:54:49;;;;;;;;;53.00;38.25;;;;;3.66;100.00;103359.13;5109626;27;46369;-69
2023/02/08 01:57:15;;;;;;;;;49.75;38.25;;;;;3.66;100.00;103358.22;5083003;27;45374;-71
2023/02/08 01:59:50;;;;;;;;;51.75;39.75;;;;;3.64;100.00;103360.72;5097512;27;57909;-71
2023/02/08 02:02:19;;;;;;;;;15.25;7.00;;;;;3.64;100.00;103354.59;5082679;27;45386;-72
2023/02/08 02:04:45;;;;;;;;;50.00;42.25;;;;;3.60;100.00;103347.28;5098288;27;47504;-70
2023/02/08 02:07:10;;;;;;;;;50.50;41.25;;;;;3.58;100.00;103351.50;5079536;27;45362;-70
2023/02/08 02:09:44;;;;;;;;;61.00;42.75;;;;;3.62;100.00;103351.88;5099838;27;45380;-69
2023/02/08 02:12:10;;;;;;;;;50.25;37.50;;;;;3.54;100.00;103341.59;5080771;27;45767;-69
2023/02/08 02:14:37;;;;;;;;;55.75;43.50;;;;;3.58;100.00;103360.25;5089476;27;53408;-71
2023/02/08 02:17:02;;;;;;;;;37.50;32.00;;;;;3.56;100.00;103351.34;5095976;27;45470;-69
2023/02/08 02:20:18;;;;;;;;;44.50;33.75;;;;;3.55;100.00;103351.25;5097591;27;59848;-70
2023/02/08 02:23:21;;;;;;;;;53.75;38.75;;;;;3.55;100.00;103346.91;5054894;27;45674;-69
2023/02/08 02:26:24;;;;;;;;;53.00;39.00;;;;;3.57;100.00;103336.59;5092451;27;45675;-73
2023/02/08 02:29:11;;;;;;;;;48.50;33.00;;;;;3.56;100.00;103333.06;5092533;27;45246;-72
2023/02/08 02:31:55;;;;;;;;;39.00;33.75;;;;;3.55;100.00;103332.94;5098387;27;45467;-70
2023/02/08 02:34:32;;;;;;;;;37.00;28.50;;;;;3.55;100.00;103327.72;5098094;27;45615;-69
2023/02/08 02:37:06;;;;;;;;;40.00;28.50;;;;;3.46;100.00;103316.53;5096770;27;46879;-69
2023/02/08 02:39:41;;;;;;;;;40.25;33.25;;;;;3.48;100.00;103323.72;5098148;27;45540;-70
2023/02/08 02:45:29;;;;;;;;;38.25;30.50;;;;;3.47;100.00;103313.16;5095982;27;45379;-71
2023/02/08 02:48:22;;;;;;;;;35.25;30.50;;;;;3.46;100.00;103312.22;5098799;27;46483;-73
2023/02/08 02:50:52;;;;;;;;;38.50;35.50;;;;;3.46;100.00;103322.66;5075821;27;45526;-73
2023/02/08 02:53:27;;;;;;;;;39.50;30.00;;;;;3.45;100.00;103327.78;5071502;27;45431;-69
2023/02/08 02:55:58;;;;;;;;;46.25;34.25;;;;;3.41;100.00;103321.44;5079357;27;45471;-70
2023/02/08 02:58:25;;;;;;;;;45.50;34.00;;;;;3.46;100.00;103316.53;5097444;27;45433;-72
2023/02/08 03:00:53;;;;;;;;;42.25;35.25;;;;;3.39;100.00;103304.69;5096086;27;61726;-69
2023/02/08 03:03:27;;;;;;;;;36.50;29.50;;;;;3.46;100.00;103317.44;5097242;27;45305;-71
2023/02/08 03:06:11;;;;;;;;;32.00;29.75;;;;;3.48;100.00;103309.75;5097376;27;45479;-70
2023/02/08 03:09:14;;;;;;;;;37.25;31.00;;;;;3.51;100.00;103304.75;5079637;27;47065;-71
2023/02/08 03:11:45;;;;;;;;;44.00;35.75;;;;;3.51;100.00;103299.53;5089450;27;45297;-69
2023/02/08 03:14:37;;;;;;;;;42.75;30.25;;;;;3.53;100.00;103301.50;5059117;28;45448;-69
2023/02/08 03:17:14;;;;;;;;;40.50;29.75;;;;;3.52;100.00;103299.69;5049761;27;45303;-73
2023/02/08 03:19:42;;;;;;;;;47.75;33.25;;;;;3.51;100.00;103300.44;5092696;27;45369;-71
2023/02/08 03:22:18;;;;;;;;;43.00;34.50;;;;;3.51;100.00;103295.22;5097011;27;45200;-69
2023/02/08 03:24:54;;;;;;;;;38.75;29.25;;;;;3.53;100.00;103300.59;5079087;27;45507;-70
2023/02/08 03:27:42;;;;;;;;;36.75;27.00;;;;;3.50;100.00;103289.88;5090200;27;45460;-70
2023/02/08 03:30:25;;;;;;;;;54.50;31.00;;;;;3.52;100.00;103302.28;5090364;27;45832;-69
2023/02/08 03:32:59;;;;;;;;;40.25;27.50;;;;;3.51;100.00;103295.22;5096334;27;45579;-70
2023/02/08 03:35:29;;;;;;;;;41.50;33.00;;;;;3.46;100.00;103291.34;5094051;27;45401;-69
2023/02/08 03:37:59;;;;;;;;;34.00;32.25;;;;;3.51;100.00;103307.38;5078077;27;45681;-71
2023/02/08 03:40:32;;;;;;;;;39.25;33.00;;;;;3.50;100.00;103316.00;5079267;27;46430;-69
2023/02/08 03:43:00;;;;;;;;;49.25;36.25;;;;;3.47;100.00;103301.03;5078208;27;45196;-70
2023/02/08 03:45:30;;;;;;;;;35.50;28.25;;;;;3.45;100.00;103299.97;5078242;27;45561;-69
2023/02/08 03:47:57;;;;;;;;;42.00;31.00;;;;;3.40;100.00;103302.22;5093757;27;45442;-70
2023/02/08 03:50:23;;;;;;;;;47.50;34.50;;;;;3.37;100.00;103288.94;5096579;27;46680;-70
2023/02/08 03:52:50;;;;;;;;;35.25;27.75;;;;;3.38;100.00;103297.66;5096304;27;46719;-72
2023/02/08 03:55:25;;;;;;;;;40.50;25.75;;;;;3.31;100.00;103282.31;5087709;27;45425;-69
2023/02/08 03:58:00;;;;;;;;;52.50;34.25;;;;;3.29;100.00;103294.31;5079450;27;45354;-69
2023/02/08 04:00:26;;;;;;;;;42.00;31.75;;;;;3.29;100.00;103290.00;5097942;27;46752;-73
2023/02/08 04:02:55;;;;;;;;;39.25;26.75;;;;;3.30;100.00;103310.13;5078934;27;45423;-70
2023/02/08 04:05:21;;;;;;;;;36.75;30.50;;;;;3.26;100.00;103304.53;5101319;27;45387;-71
2023/02/08 04:07:47;;;;;;;;;35.50;28.00;;;;;3.21;100.00;103309.38;5084279;27;45579;-69
2023/02/08 04:10:12;;;;;;;;;43.50;32.25;;;;;3.20;100.00;103311.88;5080414;27;63786;-69
2023/02/08 04:12:38;;;;;;;;;38.00;28.50;;;;;3.14;100.00;103304.44;5077482;27;45617;-74
2023/02/08 04:15:04;;;;;;;;;30.50;27.50;;;;;3.12;100.00;103301.69;5096139;27;56310;-68
2023/02/08 04:17:31;;;;;;;;;38.50;24.25;;;;;3.10;100.00;103310.22;5096060;27;45601;-70
2023/02/08 04:19:56;;;;;;;;;33.00;28.50;;;;;3.07;100.00;103299.50;5096210;27;45717;-69
2023/02/08 04:22:22;;;;;;;;;28.75;25.50;;;;;3.06;100.00;103308.13;5095846;27;45350;-69
2023/02/08 04:24:47;;;;;;;;;37.50;26.75;;;;;3.04;100.00;103302.81;5092655;27;52373;-70
2023/02/08 04:27:12;;;;;;;;;35.75;29.50;;;;;2.88;100.00;103282.38;5096778;27;53223;-69
2023/02/08 04:29:38;;;;;;;;;37.50;28.00;;;;;3.03;100.00;103300.94;5094302;27;46487;-72
2023/02/08 04:32:03;;;;;;;;;44.75;32.50;;;;;3.01;100.00;103294.72;5093138;27;45295;-70
2023/02/08 04:34:29;;;;;;;;;28.00;25.75;;;;;2.99;100.00;103291.06;5077228;27;45572;-69
2023/02/08 04:36:54;;;;;;;;;31.00;31.00;;;;;2.96;100.00;103290.81;5095136;27;45384;-69
2023/02/08 04:39:20;;;;;;;;;29.00;26.00;;;;;2.90;100.00;103277.28;5095210;27;45960;-71
2023/02/08 04:41:45;;;;;;;;;36.75;25.75;;;;;2.94;100.00;103278.44;5095809;27;54202;-70
2023/02/08 04:44:10;;;;;;;;;39.50;30.50;;;;;2.92;100.00;103273.06;5091954;27;55585;-70
2023/02/08 04:46:36;;;;;;;;;32.50;28.00;;;;;2.91;100.00;103271.25;5093442;27;45624;-72
2023/02/08 04:49:01;;;;;;;;;30.75;26.25;;;;;2.94;100.00;103273.22;5095525;27;52688;-70
2023/02/08 04:51:26;;;;;;;;;30.50;27.25;;;;;2.91;100.00;103275.56;5090168;27;59696;-71
2023/02/08 04:53:52;;;;;;;;;33.75;30.50;;;;;2.96;100.00;103275.16;5085990;27;48383;-69
2023/02/08 04:56:17;;;;;;;;;38.50;28.00;;;;;2.88;100.00;103269.31;5094249;27;46519;-70
2023/02/08 04:58:42;;;;;;;;;37.50;27.50;;;;;2.89;100.00;103273.75;5091543;27;62031;-70
2023/02/08 05:01:11;;;;;;;;;32.50;30.00;;;;;2.85;100.00;103271.69;5095175;27;55176;-70
2023/02/08 05:03:36;;;;;;;;;33.00;25.75;;;;;2.89;100.00;103278.06;5095622;27;45304;-71
2023/02/08 05:06:02;;;;;;;;;38.75;26.00;;;;;2.87;100.00;103284.84;5095572;27;54065;-71
2023/02/08 05:08:28;;;;;;;;;36.75;22.00;;;;;2.85;100.00;103270.78;5096057;27;46436;-70
2023/02/08 05:10:53;;;;;;;;;27.50;24.75;;;;;2.83;100.00;103268.03;5081651;27;45721;-73
2023/02/08 05:13:18;;;;;;;;;44.75;29.00;;;;;2.83;100.00;103262.81;5095883;27;45294;-72
2023/02/08 05:15:44;;;;;;;;;34.50;28.00;;;;;2.91;100.00;103271.25;5092390;27;53214;-72
2023/02/08 05:18:09;;;;;;;;;32.50;25.00;;;;;2.92;100.00;103270.47;5093502;27;60069;-72
2023/02/08 05:20:34;;;;;;;;;29.25;24.75;;;;;2.93;100.00;103266.16;5091257;27;59006;-70
2023/02/08 05:23:00;;;;;;;;;20.25;13.00;;;;;2.87;100.00;103258.75;5091403;27;45369;-70
2023/02/08 05:25:25;;;;;;;;;30.25;25.25;;;;;2.83;100.00;103255.00;5096050;27;46460;-70
2023/02/08 05:27:51;;;;;;;;;29.00;23.25;;;;;2.84;100.00;103253.28;5098431;27;47066;-70
2023/02/08 05:30:16;;;;;;;;;29.50;24.75;;;;;2.87;100.00;103264.88;5099049;27;45328;-70
2023/02/08 05:32:41;;;;;;;;;35.00;26.00;;;;;2.89;100.00;103268.53;5094019;27;47485;-69
2023/02/08 05:35:07;;;;;;;;;29.50;22.75;;;;;2.85;100.00;103260.34;5098545;27;53694;-70
2023/02/08 05:37:33;;;;;;;;;32.00;23.00;;;;;2.92;100.00;103272.16;5098626;27;46362;-70
2023/02/08 05:39:58;;;;;;;;;28.50;24.00;;;;;2.92;100.00;103266.94;5097514;27;45286;-71
2023/02/08 05:42:23;;;;;;;;;25.00;23.50;;;;;2.93;100.00;103260.94;5080894;27;45375;-72
2023/02/08 05:44:49;;;;;;;;;32.25;25.50;;;;;2.89;100.00;103265.03;5098612;27;46264;-71
2023/02/08 05:47:14;;;;;;;;;29.75;26.00;;;;;2.89;100.00;103258.09;5089587;27;46053;-70
2023/02/08 05:49:39;;;;;;;;;26.25;24.25;;;;;2.93;100.00;103274.94;5086100;27;45498;-70
2023/02/08 05:52:05;;;;;;;;;35.00;23.25;;;;;2.82;100.00;103258.41;5085800;27;45962;-69
2023/02/08 05:54:30;;;;;;;;;32.25;29.00;;;;;2.92;100.00;103270.47;5093834;27;53590;-70
2023/02/08 05:56:55;;;;;;;;;34.25;24.25;;;;;2.94;100.00;103273.22;5092996;27;62671;-72
2023/02/08 05:59:21;;;;;;;;;41.25;33.00;;;;;2.96;100.00;103282.06;5097577;27;49040;-70
2023/02/08 06:01:46;;;;;;;;;39.75;30.50;;;;;2.95;100.00;103275.03;5093795;27;51880;-71
2023/02/08 06:04:12;;;;;;;;;43.50;35.00;;;;;2.97;100.00;103274.34;5097088;27;45517;-70
2023/02/08 06:06:37;;;;;;;;;37.25;30.75;;;;;2.92;100.00;103270.47;5094076;27;59546;-71
2023/02/08 06:09:03;;;;;;;;;37.75;30.00;;;;;2.97;100.00;103282.19;5099118;27;45466;-71
2023/02/08 06:11:29;;;;;;;;;41.25;34.25;;;;;2.95;100.00;103275.03;5094489;27;45500;-73
2023/02/08 06:13:54;;;;;;;;;40.00;32.50;;;;;2.96;100.00;103272.53;5089426;27;45435;-69
2023/02/08 06:16:19;;;;;;;;;34.50;27.50;;;;;2.94;100.00;103271.53;5095608;27;45886;-71
2023/02/08 06:18:45;;;;;;;;;40.25;33.75;;;;;2.91;100.00;103257.31;5094945;27;59220;-70
2023/02/08 06:21:11;;;;;;;;;39.25;32.00;;;;;2.89;100.00;103265.03;5075192;27;57725;-70
2023/02/08 06:23:36;;;;;;;;;39.50;31.00;;;;;2.93;100.00;103281.81;5096154;27;45485;-71
2023/02/08 06:26:02;;;;;;;;;44.00;31.00;;;;;2.86;100.00;103264.75;5092858;27;60685;-70
2023/02/08 06:28:27;;;;;;;;;38.75;30.25;;;;;2.83;100.00;103275.88;5093958;27;45412;-69
2023/02/08 06:30:52;;;;;;;;;35.00;32.50;;;;;2.87;100.00;103284.84;5092234;27;55300;-70
2023/02/08 06:33:18;;;;;;;;;35.75;32.00;;;;;2.84;100.00;103285.50;5091927;27;45566;-70
2023/02/08 06:35:50;;;;;;;;;20.75;17.00;;;;;2.80;100.00;103286.03;5088830;27;48898;-70
2023/02/08 06:38:15;;;;;;;;;30.25;29.75;;;;;2.79;100.00;103289.44;5086876;27;46346;-70
2023/02/08 06:40:40;;;;;;;;;43.25;32.00;;;;;2.78;100.00;103295.44;5087299;27;55502;-69
2023/02/08 06:43:06;;;;;;;;;34.00;28.75;;;;;2.70;100.00;103287.78;5086865;27;45506;-69
2023/02/08 06:45:31;;;;;;;;;33.75;27.00;;;;;2.74;100.00;103303.81;5086979;27;61330;-69
2023/02/08 06:47:56;;;;;;;;;43.50;30.50;;;;;2.69;100.00;103296.38;5092437;27;45473;-69
2023/02/08 06:50:22;;;;;;;;;40.75;28.25;;;;;2.67;100.00;103297.97;5093970;27;45486;-69
2023/02/08 06:52:47;;;;;;;;;27.50;24.50;;;;;2.59;100.00;103287.78;5095616;27;45634;-69
2023/02/08 06:55:13;;;;;;;;;34.25;27.25;;;;;2.66;100.00;103291.81;5092335;27;52741;-69
2023/02/08 06:57:38;;;;;;;;;38.75;29.25;;;;;2.66;100.00;103293.50;5097266;27;45554;-69
2023/02/08 07:00:05;;;;;;;;;33.75;30.75;;;;;2.68;100.00;103297.19;5085699;27;45463;-69
2023/02/08 07:02:30;;;;;;;;;34.50;31.75;;;;;2.62;100.00;103292.38;5096398;27;45462;-69
2023/02/08 07:04:55;;;;;;;;;45.50;34.75;;;;;2.61;100.00;103294.06;5098948;27;46214;-69
2023/02/08 07:07:23;;;;;;;;;31.00;25.25;;;;;2.67;100.00;103300.59;5097249;27;45551;-70
2023/02/08 07:09:49;;;;;;;;;33.75;28.75;;;;;2.59;100.00;103289.50;5084250;27;45649;-69
2023/02/08 07:12:14;;;;;;;;;36.75;31.25;;;;;2.63;100.00;103309.84;5065061;27;50899;-69
2023/02/08 07:14:41;;;;;;;;;40.25;26.25;;;;;2.62;100.00;103306.31;5087139;27;54392;-69
2023/02/08 07:17:07;;;;;;;;;40.50;29.25;;;;;2.58;100.00;103296.41;5086974;27;46798;-69
2023/02/08 07:19:32;;;;;;;;;43.00;36.00;;;;;2.61;100.00;103307.13;5069476;27;45464;-69
2023/02/08 07:22:03;;;;;;;;;24.25;22.75;;;;;2.62;100.00;103311.53;5061558;27;45679;-70
2023/02/08 07:24:29;;;;;;;;;31.25;29.00;;;;;2.59;100.00;103287.78;5076533;27;47382;-69
2023/02/08 07:26:54;;;;;;;;;28.50;25.25;;;;;2.66;100.00;103296.13;5089836;27;45463;-71
2023/02/08 07:29:19;;;;;;;;;30.50;27.75;;;;;2.61;100.00;103286.25;5086931;27;58626;-71
2023/02/08 07:31:45;;;;;;;;;33.00;26.50;;;;;2.60;100.00;103284.41;5077163;27;55858;-70
2023/02/08 07:34:10;;;;;;;;;14.50;10.50;;;;;2.61;100.00;103282.72;5079752;27;45594;-71
2023/02/08 07:36:35;;;;;;;;;31.25;26.50;;;;;2.65;100.00;103294.31;5094964;27;51501;-70
2023/02/08 07:39:01;;;;;;;;;28.75;23.50;;;;;2.57;100.00;103278.03;5085137;27;45409;-71
2023/02/08 07:41:27;;;;;;;;;36.00;28.00;;;;;2.61;100.00;103286.25;5088871;27;45895;-70
2023/02/08 07:43:52;;;;;;;;;37.00;26.00;;;;;2.69;100.00;103293.78;5088885;27;45644;-70
2023/02/08 07:46:20;;;;;;;;;29.75;25.00;;;;;2.72;100.00;103296.66;5085955;27;55184;-69
2023/02/08 07:48:48;;;;;;;;;43.50;28.50;;;;;2.72;100.00;103289.75;5092262;27;45179;-70
2023/02/08 07:51:13;;;;;;;;;21.25;20.50;;;;;2.72;100.00;103287.13;5089828;27;45516;-70
2023/02/08 07:53:39;;;;;;;;;35.00;27.75;;;;;2.80;100.00;103290.34;5087964;27;55379;-70
2023/02/08 07:56:05;;;;;;;;;31.75;25.50;;;;;2.76;100.00;103283.06;5088794;27;54799;-70
2023/02/08 07:58:30;;;;;;;;;33.25;23.00;;;;;2.78;100.00;103281.50;5088436;27;45578;-70
2023/02/08 08:00:57;;;;;;;;;26.00;24.75;;;;;2.82;100.00;103291.38;5076328;27;45571;-70
2023/02/08 08:03:23;;;;;;;;;16.50;14.25;;;;;2.82;100.00;103291.38;5091811;27;46599;-70
2023/02/08 08:05:49;;;;;;;;;41.50;27.00;;;;;2.84;100.00;103298.56;5088400;27;45511;-70
2023/02/08 08:08:14;;;;;;;;;29.75;21.50;;;;;2.84;100.00;103289.81;5076946;27;47100;-70
2023/02/08 08:10:40;;;;;;;;;33.25;23.75;;;;;2.88;100.00;103286.69;5087300;27;53760;-70
2023/02/08 08:13:06;;;;;;;;;26.25;23.50;;;;;2.93;100.00;103285.38;5088513;27;45885;-70
2023/02/08 08:15:31;;;;;;;;;24.50;20.50;;;;;2.91;100.00;103267.75;5088073;27;45539;-71
2023/02/08 08:17:57;;;;;;;;;30.50;23.00;;;;;2.96;100.00;103274.25;5093227;27;45435;-71
2023/02/08 08:20:22;;;;;;;;;33.75;27.75;;;;;3.01;100.00;103278.13;5072400;27;46353;-71
2023/02/08 08:22:48;;;;;;;;;37.00;28.75;;;;;3.02;100.00;103273.03;5071778;27;47314;-70
2023/02/08 08:25:14;;;;;;;;;35.75;28.50;;;;;3.06;100.00;103275.13;5091257;27;45461;-70
2023/02/08 08:27:39;;;;;;;;;28.75;24.50;;;;;3.08;100.00;103281.34;5095581;27;45614;-71
2023/02/08 08:30:07;;;;;;;;;30.25;26.75;;;;;3.09;100.00;103277.97;5094781;27;45541;-70
2023/02/08 08:32:32;;;;;;;;;20.25;10.50;;;;;3.10;100.00;103279.78;5094682;27;47095;-71
2023/02/08 08:34:57;;;;;;;;;32.50;24.50;;;;;3.09;100.00;103280.59;5090156;27;60501;-70
2023/02/08 08:37:23;;;;;;;;;17.25;16.75;;;;;3.11;100.00;103271.19;5093126;27;49918;-70
2023/02/08 08:39:48;;;;;;;;;26.50;24.00;;;;;3.15;100.00;103272.34;5076733;27;46483;-70
2023/02/08 08:42:13;;;;;;;;;25.50;22.75;;;;;3.19;100.00;103271.78;5095418;27;46346;-70
2023/02/08 08:44:39;;;;;;;;;24.75;21.25;;;;;3.18;100.00;103254.28;5094333;27;47867;-70
2023/02/08 08:47:04;;;;;;;;;25.75;23.75;;;;;3.10;100.00;103240.66;5092762;27;57204;-71
2023/02/08 08:49:30;;;;;;;;;34.25;27.25;;;;;3.32;100.00;103265.84;5095271;27;52409;-71
2023/02/08 08:51:56;;;;;;;;;26.25;23.50;;;;;3.34;100.00;103259.03;5094992;27;45571;-71
2023/02/08 08:54:22;;;;;;;;;33.00;24.00;;;;;3.33;100.00;103252.00;5095310;27;45638;-71
2023/02/08 08:56:47;;;;;;;;;33.50;24.25;;;;;3.32;100.00;103245.88;5095756;27;45848;-71
2023/02/08 08:59:13;;;;;;;;;16.75;14.75;;;;;3.39;100.00;103255.09;5094093;27;49836;-70
2023/02/08 09:01:41;;;;;;;;;28.50;25.50;;;;;3.39;100.00;103242.03;5097547;27;54770;-71
2023/02/08 09:04:07;;;;;;;;;29.75;23.00;;;;;3.38;100.00;103237.59;5069770;27;45472;-70
2023/02/08 09:06:32;;;;;;;;;39.50;24.50;;;;;3.48;100.00;103249.69;5088268;27;45504;-71
2023/02/08 09:08:57;;;;;;;;;26.25;21.75;;;;;3.53;100.00;103241.41;5093013;27;45478;-70
2023/02/08 09:11:23;;;;;;;;;24.00;21.00;;;;;3.58;100.00;103242.69;5097565;27;47340;-71
2023/02/08 09:13:54;;;;;;;;;31.00;25.50;;;;;3.61;100.00;103227.25;5093720;27;60313;-71
2023/02/08 09:16:19;;;;;;;;;31.75;24.25;;;;;3.61;100.00;103219.41;5097702;27;45323;-72
2023/02/08 09:18:45;;;;;;;;;31.25;25.75;;;;;3.65;100.00;103221.47;5094682;27;46370;-70
2023/02/08 09:21:17;;;;;;;;;27.75;24.00;;;;;3.71;100.00;103234.09;5077649;27;66303;-73
2023/02/08 09:23:43;;;;;;;;;24.25;22.00;;;;;3.74;100.00;103236.97;5089697;27;45464;-70
2023/02/08 09:26:10;;;;;;;;;27.50;23.50;;;;;3.76;100.00;103239.69;5098476;27;45567;-70
2023/02/08 09:28:35;;;;;;;;;30.00;22.25;;;;;3.74;100.00;103220.38;5088812;27;45609;-70
2023/02/08 09:31:09;;;;;;;;;33.00;21.00;;;;;3.80;100.00;103215.63;5095253;27;63093;-71
2023/02/08 09:33:34;;;;;;;;;36.50;23.00;;;;;3.91;100.00;103230.41;5084801;27;46904;-71
2023/02/08 09:36:03;;;;;;;;;34.25;25.25;;;;;3.97;100.00;103230.88;5081600;27;48882;-71
2023/02/08 09:38:29;;;;;;;;;29.00;21.75;;;;;3.95;100.00;103211.56;5083854;27;47416;-72
2023/02/08 09:41:17;;;;;;;;;26.50;20.75;;;;;4.06;100.00;103214.97;5071677;27;47084;-72
2023/02/08 09:44:16;;;;;;;;;28.00;22.25;;;;;4.10;100.00;103225.78;5085157;27;45629;-72
2023/02/08 09:46:59;;;;;;;;;20.75;18.25;;;;;4.12;100.00;103216.34;5084791;27;45175;-72
2023/02/08 09:49:30;;;;;;;;;27.00;21.25;;;;;4.14;100.00;103208.63;5087319;27;45506;-72
2023/02/08 09:52:12;;;;;;;;;27.00;21.50;;;;;4.23;100.00;103204.06;5066110;27;46809;-72
2023/02/08 09:54:58;;;;;;;;;32.50;22.00;;;;;4.30;100.00;103211.56;5074242;27;45551;-70
2023/02/08 09:57:29;;;;;;;;;32.50;27.25;;;;;4.32;100.00;103196.94;5077880;27;45658;-71
2023/02/08 10:00:04;;;;;;;;;27.25;22.25;;;;;4.44;99.93;103210.00;5096651;27;45443;-72
2023/02/08 10:02:32;;;;;;;;;29.50;23.50;;;;;4.50;99.91;103204.31;5096312;27;47012;-72
2023/02/08 10:05:02;;;;;;;;;23.00;22.75;;;;;4.56;99.91;103204.75;5097123;27;45442;-72
2023/02/08 10:07:28;;;;;;;;;25.25;18.00;;;;;4.58;99.30;103197.91;5097370;27;45374;-71
2023/02/08 10:09:56;;;;;;;;;19.25;19.00;;;;;4.63;99.20;103194.84;5078959;27;45402;-72
2023/02/08 10:12:27;;;;;;;;;20.00;20.00;;;;;4.75;98.57;103213.16;5075364;27;46171;-72
2023/02/08 10:15:33;;;;;;;;;23.00;19.75;;;;;4.82;98.15;103214.50;5088464;27;45588;-72
2023/02/08 10:18:17;;;;;;;;;23.00;19.00;;;;;4.88;97.83;103214.94;5063282;27;45546;-72
2023/02/08 10:21:00;;;;;;;;;24.50;23.25;;;;;4.93;97.63;103205.72;5096683;27;45351;-73
2023/02/08 10:23:36;;;;;;;;;27.00;21.50;;;;;4.96;96.72;103204.25;5078086;27;46722;-71
2023/02/08 10:26:25;;;;;;;;;26.50;19.50;;;;;5.03;96.73;103205.59;5095499;27;45501;-71
2023/02/08 10:28:53;;;;;;;;;29.75;18.25;;;;;5.16;96.90;103212.59;5076925;27;45467;-74
2023/02/08 10:31:46;;;;;;;;;28.00;18.50;;;;;5.24;96.09;103214.06;5097241;27;45598;-71
2023/02/08 10:34:32;;;;;;;;;32.00;25.75;;;;;5.27;96.07;103209.03;5097018;27;45534;-74
2023/02/08 10:37:00;;;;;;;;;29.75;22.25;;;;;5.34;95.53;103203.44;5096178;27;45187;-73
2023/02/08 10:39:31;;;;;;;;;27.75;21.00;;;;;5.43;94.28;103211.00;5098328;27;45487;-71
2023/02/08 10:41:58;;;;;;;;;31.50;26.00;;;;;5.42;94.82;103202.25;5080159;27;45432;-71
2023/02/08 10:44:52;;;;;;;;;29.75;24.00;;;;;5.56;94.67;103208.44;5076251;27;52547;-71
2023/02/08 10:47:39;;;;;;;;;27.25;20.25;;;;;5.62;93.82;103211.50;5093011;27;45313;-73
2023/02/08 10:50:23;;;;;;;;;34.00;21.75;;;;;5.67;93.79;103207.47;5096397;27;45634;-74
2023/02/08 10:52:51;;;;;;;;;27.25;18.00;;;;;5.68;93.85;103204.06;5094807;27;46578;-72
2023/02/08 10:55:19;;;;;;;;;27.50;20.00;;;;;5.74;93.50;103200.94;5094707;27;45560;-72
2023/02/08 10:57:50;;;;;;;;;32.50;21.00;;;;;5.85;93.59;103217.41;5075190;27;45467;-73
2023/02/08 11:00:25;;;;;;;;;27.50;19.25;;;;;5.90;93.00;103210.75;5077732;27;45364;-71
2023/02/08 11:02:52;;;;;;;;;33.75;21.75;;;;;5.92;93.20;103203.97;5096439;27;45584;-75
2023/02/08 11:05:33;;;;;;;;;20.25;14.75;;;;;6.00;92.81;103201.03;5077434;27;46201;-74
2023/02/08 11:08:11;;;;;;;;;21.75;19.50;;;;;6.12;91.84;103205.28;5090801;27;45682;-71
2023/02/08 11:10:38;;;;;;;;;35.75;26.25;;;;;6.18;91.95;103201.38;5072711;27;46610;-75
2023/02/08 11:13:09;;;;;;;;;23.50;21.75;;;;;6.20;91.10;103194.50;5078006;27;46862;-72
2023/02/08 11:15:43;;;;;;;;;31.25;18.00;;;;;6.25;91.01;103194.81;5093465;27;45605;-71
2023/02/08 11:18:30;;;;;;;;;26.75;20.00;;;;;6.39;89.81;103199.28;5077654;27;45441;-73
2023/02/08 11:20:59;;;;;;;;;18.25;15.00;;;;;6.43;89.25;103190.78;5094573;27;45361;-73
2023/02/08 11:23:28;;;;;;;;;24.50;19.50;;;;;6.43;89.26;103180.28;5094859;27;45512;-74